sensor_id;sensor_type;location;lat;lon;timestamp;noise_LAeq;noise_LA_min;noise_LA_max;noise_LA01;noise_LA95
1754;Laerm;58380;48.312;9.246;2023-04-03T06:06:57;48.37;40.52;65.35;;
1754;Laerm;58380;48.312;9.246;2023-04-03T06:09:26;48.55;37.13;63.16;;
1754;Laerm;58380;48.312;9.246;2023-04-03T06:11:52;49.68;37.01;59.92;;
1754;Laerm;58380;48.312;9.246;2023-04-03T06:14:18;49.04;37.30;64.81;;
1754;Laerm;58380;48.312;9.246;2023-04-03T06:16:44;48.09;35.59;63.28;;
1754;Laerm;58380;48.312;9.246;2023-04-03T06:19:11;46.08;39.11;59.79;;
1754;Laerm;58380;48.312;9.246;2023-04-03T06:21:48;48.18;41.50;58.40;;
1754;Laerm;58380;48.312;9.246;2023-04-03T06:24:20;50.53;39.63;61.50;;
1754;Laerm;58380;48.312;9.246;2023-04-03T06:26:48;48.82;41.04;63.13;;
1754;Laerm;58380;48.312;9.246;2023-04-03T06:29:14;52.82;42.60;69.89;;
1754;Laerm;58380;48.312;9.246;2023-04-03T06:31:40;49.54;39.97;72.08;;
1754;Laerm;58380;48.312;9.246;2023-04-03T06:34:09;49.79;38.78;67.52;;
1754;Laerm;58380;48.312;9.246;2023-04-03T06:36:36;48.24;37.84;61.25;;
1754;Laerm;58380;48.312;9.246;2023-04-03T06:39:02;48.77;36.78;60.06;;
1754;Laerm;58380;48.312;9.246;2023-04-03T06:41:28;48.79;39.92;63.03;;
1754;Laerm;58380;48.312;9.246;2023-04-03T06:43:54;48.15;36.94;62.86;;
1754;Laerm;58380;48.312;9.246;2023-04-03T06:46:23;48.83;39.11;62.21;;
1754;Laerm;58380;48.312;9.246;2023-04-03T06:48:49;48.54;39.07;66.44;;
1754;Laerm;58380;48.312;9.246;2023-04-03T06:51:23;47.28;35.02;58.54;;
1754;Laerm;58380;48.312;9.246;2023-04-03T06:53:52;48.36;36.95;60.27;;
1754;Laerm;58380;48.312;9.246;2023-04-03T06:56:18;48.69;37.98;65.37;;
1754;Laerm;58380;48.312;9.246;2023-04-03T06:58:45;48.04;37.72;61.43;;
1754;Laerm;58380;48.312;9.246;2023-04-03T07:01:13;51.49;42.82;62.75;;
1754;Laerm;58380;48.312;9.246;2023-04-03T07:03:40;49.73;42.06;60.97;;
1754;Laerm;58380;48.312;9.246;2023-04-03T07:06:10;47.15;38.03;62.07;;
1754;Laerm;58380;48.312;9.246;2023-04-03T07:08:37;46.81;38.86;57.74;;
1754;Laerm;58380;48.312;9.246;2023-04-03T07:11:04;48.16;40.49;55.51;;
1754;Laerm;58380;48.312;9.246;2023-04-03T07:13:30;47.31;40.51;54.52;;
1754;Laerm;58380;48.312;9.246;2023-04-03T07:15:56;54.15;42.34;75.63;;
1754;Laerm;58380;48.312;9.246;2023-04-03T07:18:23;47.93;40.56;55.57;;
1754;Laerm;58380;48.312;9.246;2023-04-03T07:20:53;47.89;40.74;56.72;;
1754;Laerm;58380;48.312;9.246;2023-04-03T07:23:19;51.24;39.82;81.37;;
1754;Laerm;58380;48.312;9.246;2023-04-03T07:25:46;49.57;38.27;59.63;;
1754;Laerm;58380;48.312;9.246;2023-04-03T07:28:15;46.73;36.43;57.58;;
1754;Laerm;58380;48.312;9.246;2023-04-03T07:30:51;48.48;39.78;62.65;;
1754;Laerm;58380;48.312;9.246;2023-04-03T07:33:21;56.64;42.12;77.74;;
1754;Laerm;58380;48.312;9.246;2023-04-03T07:35:47;51.23;43.73;60.04;;
1754;Laerm;58380;48.312;9.246;2023-04-03T07:38:13;53.05;43.49;62.31;;
1754;Laerm;58380;48.312;9.246;2023-04-03T07:40:49;48.97;43.00;61.01;;
1754;Laerm;58380;48.312;9.246;2023-04-03T07:43:25;50.66;44.17;64.21;;
1754;Laerm;58380;48.312;9.246;2023-04-03T07:45:51;48.34;41.89;60.24;;
1754;Laerm;58380;48.312;9.246;2023-04-03T07:48:27;51.46;42.00;74.41;;
1754;Laerm;58380;48.312;9.246;2023-04-03T07:50:53;50.68;40.87;63.82;;
1754;Laerm;58380;48.312;9.246;2023-04-03T07:53:19;45.80;38.51;59.85;;
1754;Laerm;58380;48.312;9.246;2023-04-03T07:55:48;47.68;40.15;63.83;;
1754;Laerm;58380;48.312;9.246;2023-04-03T07:58:18;48.42;42.18;58.03;;
1754;Laerm;58380;48.312;9.246;2023-04-03T08:00:44;54.41;41.05;71.95;;
1754;Laerm;58380;48.312;9.246;2023-04-03T08:03:19;48.67;39.25;65.66;;
1754;Laerm;58380;48.312;9.246;2023-04-03T08:06:14;49.98;41.64;64.17;;
1754;Laerm;58380;48.312;9.246;2023-04-03T08:08:40;49.83;43.86;57.74;;
1754;Laerm;58380;48.312;9.246;2023-04-03T08:11:06;49.05;42.94;57.26;;
1754;Laerm;58380;48.312;9.246;2023-04-03T08:13:34;49.76;40.67;60.75;;
1754;Laerm;58380;48.312;9.246;2023-04-03T08:16:35;49.34;38.42;63.30;;
1754;Laerm;58380;48.312;9.246;2023-04-03T08:19:03;49.59;39.96;60.43;;
1754;Laerm;58380;48.312;9.246;2023-04-03T08:21:31;49.90;39.25;64.54;;
1754;Laerm;58380;48.312;9.246;2023-04-03T08:23:59;48.96;38.87;58.86;;
1754;Laerm;58380;48.312;9.246;2023-04-03T08:26:25;50.60;38.26;60.76;;
1754;Laerm;58380;48.312;9.246;2023-04-03T08:28:51;48.18;36.81;61.86;;
1754;Laerm;58380;48.312;9.246;2023-04-03T08:31:24;46.00;35.73;56.99;;
1754;Laerm;58380;48.312;9.246;2023-04-03T08:33:49;47.75;40.00;64.28;;
1754;Laerm;58380;48.312;9.246;2023-04-03T08:36:29;50.96;39.50;67.86;;
1754;Laerm;58380;48.312;9.246;2023-04-03T08:45:55;55.39;37.22;75.76;;
1754;Laerm;58380;48.312;9.246;2023-04-03T08:48:35;50.12;39.91;68.96;;
1754;Laerm;58380;48.312;9.246;2023-04-03T08:51:45;48.35;41.03;60.56;;
1754;Laerm;58380;48.312;9.246;2023-04-03T08:55:04;49.21;42.79;59.63;;
1754;Laerm;58380;48.312;9.246;2023-04-03T08:57:42;50.15;37.25;64.74;;
1754;Laerm;58380;48.312;9.246;2023-04-03T09:03:19;47.04;38.24;63.10;;
1754;Laerm;58380;48.312;9.246;2023-04-03T09:10:49;49.35;34.16;74.19;;
1754;Laerm;58380;48.312;9.246;2023-04-03T09:20:21;44.02;34.41;53.56;;
1754;Laerm;58380;48.312;9.246;2023-04-03T09:22:51;50.77;41.75;68.68;;
1754;Laerm;58380;48.312;9.246;2023-04-03T09:25:31;47.07;37.64;56.19;;
1754;Laerm;58380;48.312;9.246;2023-04-03T09:28:05;48.10;39.70;59.79;;
1754;Laerm;58380;48.312;9.246;2023-04-03T09:30:40;45.30;34.94;59.30;;
1754;Laerm;58380;48.312;9.246;2023-04-03T09:33:26;50.33;41.85;64.35;;
1754;Laerm;58380;48.312;9.246;2023-04-03T09:35:53;57.80;42.37;79.41;;
1754;Laerm;58380;48.312;9.246;2023-04-03T09:38:21;48.32;42.02;61.23;;
1754;Laerm;58380;48.312;9.246;2023-04-03T09:44:33;45.97;35.78;64.83;;
1754;Laerm;58380;48.312;9.246;2023-04-03T09:48:25;50.47;39.10;70.74;;
1754;Laerm;58380;48.312;9.246;2023-04-03T09:51:30;50.19;40.61;68.20;;
1754;Laerm;58380;48.312;9.246;2023-04-03T09:54:30;46.89;32.95;61.81;;
1754;Laerm;58380;48.312;9.246;2023-04-03T09:57:11;49.43;40.31;61.88;;
1754;Laerm;58380;48.312;9.246;2023-04-03T10:00:03;50.56;36.56;69.72;;
1754;Laerm;58380;48.312;9.246;2023-04-03T10:02:41;53.67;42.42;68.69;;
1754;Laerm;58380;48.312;9.246;2023-04-03T10:05:42;47.89;38.88;65.59;;
1754;Laerm;58380;48.312;9.246;2023-04-03T10:12:40;50.17;40.30;67.77;;
1754;Laerm;58380;48.312;9.246;2023-04-03T10:18:46;50.25;37.36;65.18;;
1754;Laerm;58380;48.312;9.246;2023-04-03T10:21:44;48.72;39.14;65.03;;
1754;Laerm;58380;48.312;9.246;2023-04-03T10:48:16;57.72;41.14;74.15;;
1754;Laerm;58380;48.312;9.246;2023-04-03T10:54:33;50.15;39.12;63.97;;
1754;Laerm;58380;48.312;9.246;2023-04-03T10:57:31;50.76;37.76;70.42;;
1754;Laerm;58380;48.312;9.246;2023-04-03T11:00:05;49.00;38.40;68.22;;
1754;Laerm;58380;48.312;9.246;2023-04-03T11:02:56;50.53;40.45;71.06;;
1754;Laerm;58380;48.312;9.246;2023-04-03T11:05:39;49.04;38.57;62.77;;
1754;Laerm;58380;48.312;9.246;2023-04-03T11:11:26;50.34;42.95;64.53;;
1754;Laerm;58380;48.312;9.246;2023-04-03T11:21:19;51.57;38.53;63.10;;
1754;Laerm;58380;48.312;9.246;2023-04-03T11:24:05;51.08;37.72;66.57;;
1754;Laerm;58380;48.312;9.246;2023-04-03T11:26:57;48.87;40.68;60.75;;
1754;Laerm;58380;48.312;9.246;2023-04-03T11:30:20;48.49;39.53;58.10;;
1754;Laerm;58380;48.312;9.246;2023-04-03T11:40:42;51.51;39.28;78.36;;
1754;Laerm;58380;48.312;9.246;2023-04-03T11:43:32;51.32;41.53;61.46;;
1754;Laerm;58380;48.312;9.246;2023-04-03T11:50:03;49.03;36.39;63.73;;
1754;Laerm;58380;48.312;9.246;2023-04-03T11:59:51;51.31;41.07;68.55;;
1754;Laerm;58380;48.312;9.246;2023-04-03T12:02:37;47.85;37.03;69.62;;
1754;Laerm;58380;48.312;9.246;2023-04-03T12:05:27;51.30;39.67;63.71;;
1754;Laerm;58380;48.312;9.246;2023-04-03T12:08:44;48.64;36.91;63.72;;
1754;Laerm;58380;48.312;9.246;2023-04-03T12:11:37;52.14;40.75;66.66;;
1754;Laerm;58380;48.312;9.246;2023-04-03T12:14:53;48.80;40.37;60.04;;
1754;Laerm;58380;48.312;9.246;2023-04-03T12:17:28;49.70;43.19;59.05;;
1754;Laerm;58380;48.312;9.246;2023-04-03T12:19:55;48.22;41.11;59.55;;
1754;Laerm;58380;48.312;9.246;2023-04-03T12:22:21;49.92;39.19;67.57;;
1754;Laerm;58380;48.312;9.246;2023-04-03T12:24:52;50.08;37.31;67.32;;
1754;Laerm;58380;48.312;9.246;2023-04-03T12:27:29;50.76;38.00;63.54;;
1754;Laerm;58380;48.312;9.246;2023-04-03T12:30:07;46.77;37.58;57.59;;
1754;Laerm;58380;48.312;9.246;2023-04-03T12:33:10;49.42;42.66;63.42;;
1754;Laerm;58380;48.312;9.246;2023-04-03T12:36:17;49.72;39.28;60.85;;
1754;Laerm;58380;48.312;9.246;2023-04-03T12:42:19;50.02;39.24;65.66;;
1754;Laerm;58380;48.312;9.246;2023-04-03T12:45:19;48.77;40.93;63.13;;
1754;Laerm;58380;48.312;9.246;2023-04-03T12:47:49;48.79;39.31;56.50;;
1754;Laerm;58380;48.312;9.246;2023-04-03T12:50:28;49.03;40.34;58.49;;
1754;Laerm;58380;48.312;9.246;2023-04-03T12:55:37;51.40;40.81;67.74;;
1754;Laerm;58380;48.312;9.246;2023-04-03T12:58:24;49.17;37.62;62.21;;
1754;Laerm;58380;48.312;9.246;2023-04-03T13:01:12;50.21;39.39;68.24;;
1754;Laerm;58380;48.312;9.246;2023-04-03T13:03:43;48.27;36.79;61.74;;
1754;Laerm;58380;48.312;9.246;2023-04-03T13:06:41;48.63;36.07;59.60;;
1754;Laerm;58380;48.312;9.246;2023-04-03T13:09:26;49.03;40.67;58.66;;
1754;Laerm;58380;48.312;9.246;2023-04-03T13:12:11;49.41;37.84;59.00;;
1754;Laerm;58380;48.312;9.246;2023-04-03T13:14:37;50.38;39.60;70.77;;
1754;Laerm;58380;48.312;9.246;2023-04-03T13:17:15;48.62;38.84;66.64;;
1754;Laerm;58380;48.312;9.246;2023-04-03T13:19:43;46.52;39.88;60.45;;
1754;Laerm;58380;48.312;9.246;2023-04-03T13:22:34;47.95;36.67;61.63;;
1754;Laerm;58380;48.312;9.246;2023-04-03T13:25:09;47.48;37.04;63.94;;
1754;Laerm;58380;48.312;9.246;2023-04-03T13:27:38;49.30;39.05;63.75;;
1754;Laerm;58380;48.312;9.246;2023-04-03T13:30:06;49.03;39.87;67.27;;
1754;Laerm;58380;48.312;9.246;2023-04-03T13:32:32;48.26;40.35;61.46;;
1754;Laerm;58380;48.312;9.246;2023-04-03T13:34:59;48.04;39.17;57.04;;
1754;Laerm;58380;48.312;9.246;2023-04-03T13:37:32;47.06;40.89;57.07;;
1754;Laerm;58380;48.312;9.246;2023-04-03T13:40:10;50.69;42.79;60.68;;
1754;Laerm;58380;48.312;9.246;2023-04-03T13:42:40;48.82;38.42;57.22;;
1754;Laerm;58380;48.312;9.246;2023-04-03T13:45:25;51.17;41.93;61.10;;
1754;Laerm;58380;48.312;9.246;2023-04-03T13:48:25;49.51;39.57;58.13;;
1754;Laerm;58380;48.312;9.246;2023-04-03T13:51:19;49.47;40.34;65.88;;
1754;Laerm;58380;48.312;9.246;2023-04-03T13:53:58;49.98;41.92;67.87;;
1754;Laerm;58380;48.312;9.246;2023-04-03T13:56:39;50.45;41.26;62.82;;
1754;Laerm;58380;48.312;9.246;2023-04-03T14:01:46;51.23;42.23;65.12;;
1754;Laerm;58380;48.312;9.246;2023-04-03T14:04:26;47.05;39.22;57.09;;
1754;Laerm;58380;48.312;9.246;2023-04-03T14:06:53;51.64;44.79;60.96;;
1754;Laerm;58380;48.312;9.246;2023-04-03T14:09:21;53.11;43.35;65.43;;
1754;Laerm;58380;48.312;9.246;2023-04-03T14:11:51;48.80;39.77;60.40;;
1754;Laerm;58380;48.312;9.246;2023-04-03T14:14:26;48.91;41.71;55.22;;
1754;Laerm;58380;48.312;9.246;2023-04-03T14:16:56;50.17;34.75;65.16;;
1754;Laerm;58380;48.312;9.246;2023-04-03T14:19:34;47.64;37.49;57.26;;
1754;Laerm;58380;48.312;9.246;2023-04-03T14:22:11;59.75;35.96;89.07;;
1754;Laerm;58380;48.312;9.246;2023-04-03T14:24:38;47.15;38.73;67.02;;
1754;Laerm;58380;48.312;9.246;2023-04-03T14:27:16;47.10;40.36;57.29;;
1754;Laerm;58380;48.312;9.246;2023-04-03T14:29:42;47.70;38.69;66.36;;
1754;Laerm;58380;48.312;9.246;2023-04-03T14:32:12;52.11;39.00;77.88;;
1754;Laerm;58380;48.312;9.246;2023-04-03T14:34:38;50.67;40.87;68.29;;
1754;Laerm;58380;48.312;9.246;2023-04-03T14:37:08;48.89;41.52;59.49;;
1754;Laerm;58380;48.312;9.246;2023-04-03T14:39:34;48.47;39.59;64.87;;
1754;Laerm;58380;48.312;9.246;2023-04-03T14:41:59;49.60;41.91;61.59;;
1754;Laerm;58380;48.312;9.246;2023-04-03T14:44:25;49.68;39.11;59.58;;
1754;Laerm;58380;48.312;9.246;2023-04-03T14:46:51;49.20;40.15;65.58;;
1754;Laerm;58380;48.312;9.246;2023-04-03T14:49:21;53.88;37.68;77.90;;
1754;Laerm;58380;48.312;9.246;2023-04-03T14:51:48;50.10;42.44;62.71;;
1754;Laerm;58380;48.312;9.246;2023-04-03T14:54:19;47.77;37.77;62.33;;
1754;Laerm;58380;48.312;9.246;2023-04-03T14:56:47;48.42;38.15;63.00;;
1754;Laerm;58380;48.312;9.246;2023-04-03T14:59:13;48.95;38.23;59.10;;
1754;Laerm;58380;48.312;9.246;2023-04-03T15:01:40;47.44;41.37;53.06;;
1754;Laerm;58380;48.312;9.246;2023-04-03T15:04:18;47.35;39.76;59.82;;
1754;Laerm;58380;48.312;9.246;2023-04-03T15:06:45;47.23;38.71;60.18;;
1754;Laerm;58380;48.312;9.246;2023-04-03T15:09:23;48.09;40.31;59.77;;
1754;Laerm;58380;48.312;9.246;2023-04-03T15:11:51;47.55;40.75;54.51;;
1754;Laerm;58380;48.312;9.246;2023-04-03T15:14:17;47.48;39.70;57.15;;
1754;Laerm;58380;48.312;9.246;2023-04-03T15:16:44;50.05;42.14;61.82;;
1754;Laerm;58380;48.312;9.246;2023-04-03T15:19:10;50.21;42.06;61.09;;
1754;Laerm;58380;48.312;9.246;2023-04-03T15:21:36;48.10;39.06;62.79;;
1754;Laerm;58380;48.312;9.246;2023-04-03T15:24:02;48.31;38.95;61.88;;
1754;Laerm;58380;48.312;9.246;2023-04-03T15:26:27;49.07;41.70;59.90;;
1754;Laerm;58380;48.312;9.246;2023-04-03T15:28:53;50.01;41.22;61.63;;
1754;Laerm;58380;48.312;9.246;2023-04-03T15:31:19;49.34;41.30;66.63;;
1754;Laerm;58380;48.312;9.246;2023-04-03T15:33:44;50.85;38.60;64.47;;
1754;Laerm;58380;48.312;9.246;2023-04-03T15:36:09;50.04;42.07;59.70;;
1754;Laerm;58380;48.312;9.246;2023-04-03T15:38:35;48.15;40.14;57.04;;
1754;Laerm;58380;48.312;9.246;2023-04-03T15:41:03;50.66;39.40;64.20;;
1754;Laerm;58380;48.312;9.246;2023-04-03T15:43:30;46.42;39.09;63.88;;
1754;Laerm;58380;48.312;9.246;2023-04-03T15:45:58;45.99;38.64;52.58;;
1754;Laerm;58380;48.312;9.246;2023-04-03T15:48:24;47.82;39.46;55.78;;
1754;Laerm;58380;48.312;9.246;2023-04-03T15:50:50;48.50;35.44;67.69;;
1754;Laerm;58380;48.312;9.246;2023-04-03T15:53:16;49.79;38.22;66.81;;
1754;Laerm;58380;48.312;9.246;2023-04-03T15:55:41;46.08;36.99;54.18;;
1754;Laerm;58380;48.312;9.246;2023-04-03T15:58:07;45.89;37.31;54.28;;
1754;Laerm;58380;48.312;9.246;2023-04-03T16:00:33;46.72;37.71;54.54;;
1754;Laerm;58380;48.312;9.246;2023-04-03T16:03:12;48.16;39.03;59.95;;
1754;Laerm;58380;48.312;9.246;2023-04-03T16:05:40;47.45;39.70;55.02;;
1754;Laerm;58380;48.312;9.246;2023-04-03T16:08:06;46.69;38.02;53.15;;
1754;Laerm;58380;48.312;9.246;2023-04-03T16:10:33;47.63;39.05;55.48;;
1754;Laerm;58380;48.312;9.246;2023-04-03T16:12:59;45.91;39.02;53.89;;
1754;Laerm;58380;48.312;9.246;2023-04-03T16:15:25;48.41;38.63;57.29;;
1754;Laerm;58380;48.312;9.246;2023-04-03T16:17:52;45.40;38.61;52.34;;
1754;Laerm;58380;48.312;9.246;2023-04-03T16:20:18;47.50;38.55;59.12;;
1754;Laerm;58380;48.312;9.246;2023-04-03T16:22:44;47.12;38.93;55.21;;
1754;Laerm;58380;48.312;9.246;2023-04-03T16:25:10;47.02;41.14;52.55;;
1754;Laerm;58380;48.312;9.246;2023-04-03T16:27:36;47.54;38.08;58.52;;
1754;Laerm;58380;48.312;9.246;2023-04-03T16:30:02;46.77;38.26;56.59;;
1754;Laerm;58380;48.312;9.246;2023-04-03T16:32:29;47.72;40.27;58.51;;
1754;Laerm;58380;48.312;9.246;2023-04-03T16:34:57;46.45;38.77;57.55;;
1754;Laerm;58380;48.312;9.246;2023-04-03T16:37:23;47.61;39.46;63.32;;
1754;Laerm;58380;48.312;9.246;2023-04-03T16:39:48;47.24;37.55;57.84;;
1754;Laerm;58380;48.312;9.246;2023-04-03T16:42:14;47.18;39.03;56.82;;
1754;Laerm;58380;48.312;9.246;2023-04-03T16:44:39;46.04;38.06;55.18;;
1754;Laerm;58380;48.312;9.246;2023-04-03T16:47:06;50.49;41.48;61.35;;
1754;Laerm;58380;48.312;9.246;2023-04-03T16:49:34;47.96;38.91;64.14;;
1754;Laerm;58380;48.312;9.246;2023-04-03T16:52:01;46.77;34.52;64.50;;
1754;Laerm;58380;48.312;9.246;2023-04-03T16:54:28;45.97;36.84;56.20;;
1754;Laerm;58380;48.312;9.246;2023-04-03T16:56:54;47.66;40.18;62.25;;
1754;Laerm;58380;48.312;9.246;2023-04-03T16:59:20;45.10;36.29;56.84;;
1754;Laerm;58380;48.312;9.246;2023-04-03T17:01:46;47.86;37.67;58.25;;
1754;Laerm;58380;48.312;9.246;2023-04-03T17:04:11;46.13;35.32;54.13;;
1754;Laerm;58380;48.312;9.246;2023-04-03T17:06:38;46.82;38.02;56.64;;
1754;Laerm;58380;48.312;9.246;2023-04-03T17:09:04;44.03;34.24;55.46;;
1754;Laerm;58380;48.312;9.246;2023-04-03T17:11:31;47.40;37.19;55.62;;
1754;Laerm;58380;48.312;9.246;2023-04-03T17:13:57;48.06;38.53;57.30;;
1754;Laerm;58380;48.312;9.246;2023-04-03T17:16:24;46.25;34.21;58.33;;
1754;Laerm;58380;48.312;9.246;2023-04-03T17:18:50;46.67;37.52;59.92;;
1754;Laerm;58380;48.312;9.246;2023-04-03T17:21:17;41.98;34.39;56.32;;
1754;Laerm;58380;48.312;9.246;2023-04-03T17:23:47;45.99;36.95;55.47;;
1754;Laerm;58380;48.312;9.246;2023-04-03T17:26:14;45.61;35.72;53.17;;
1754;Laerm;58380;48.312;9.246;2023-04-03T17:28:39;45.95;37.62;61.31;;
1754;Laerm;58380;48.312;9.246;2023-04-03T17:31:07;46.61;36.68;56.98;;
1754;Laerm;58380;48.312;9.246;2023-04-03T17:33:33;49.17;38.63;62.14;;
1754;Laerm;58380;48.312;9.246;2023-04-03T17:36:01;44.24;36.01;58.34;;
1754;Laerm;58380;48.312;9.246;2023-04-03T17:38:31;46.45;36.37;60.23;;
1754;Laerm;58380;48.312;9.246;2023-04-03T17:41:01;44.68;36.74;56.65;;
1754;Laerm;58380;48.312;9.246;2023-04-03T17:43:27;44.11;35.97;50.32;;
1754;Laerm;58380;48.312;9.246;2023-04-03T17:45:53;48.15;33.19;61.63;;
1754;Laerm;58380;48.312;9.246;2023-04-03T17:48:28;45.38;35.47;64.73;;
1754;Laerm;58380;48.312;9.246;2023-04-03T17:50:53;45.25;34.49;55.22;;
1754;Laerm;58380;48.312;9.246;2023-04-03T17:53:18;44.34;33.50;57.06;;
1754;Laerm;58380;48.312;9.246;2023-04-03T17:55:44;44.64;33.43;57.20;;
1754;Laerm;58380;48.312;9.246;2023-04-03T17:58:09;46.37;32.34;62.36;;
1754;Laerm;58380;48.312;9.246;2023-04-03T18:00:35;45.48;32.40;62.90;;
1754;Laerm;58380;48.312;9.246;2023-04-03T18:03:01;44.81;33.38;61.22;;
1754;Laerm;58380;48.312;9.246;2023-04-03T18:05:28;47.19;36.88;58.46;;
1754;Laerm;58380;48.312;9.246;2023-04-03T18:07:55;44.29;35.19;54.96;;
1754;Laerm;58380;48.312;9.246;2023-04-03T18:10:22;44.50;34.88;56.98;;
1754;Laerm;58380;48.312;9.246;2023-04-03T18:12:47;43.57;31.46;54.34;;
1754;Laerm;58380;48.312;9.246;2023-04-03T18:15:13;44.96;31.01;57.42;;
1754;Laerm;58380;48.312;9.246;2023-04-03T18:17:38;44.37;32.19;59.25;;
1754;Laerm;58380;48.312;9.246;2023-04-03T18:30:10;36.53;30.62;49.64;;
1754;Laerm;58380;48.312;9.246;2023-04-03T18:37:18;43.29;32.47;53.10;;
1754;Laerm;58380;48.312;9.246;2023-04-03T18:40:34;44.47;33.96;51.55;;
1754;Laerm;58380;48.312;9.246;2023-04-03T18:47:03;41.86;32.73;50.76;;
1754;Laerm;58380;48.312;9.246;2023-04-03T18:50:28;40.99;30.72;51.24;;
1754;Laerm;58380;48.312;9.246;2023-04-03T18:53:08;43.30;32.78;50.48;;
1754;Laerm;58380;48.312;9.246;2023-04-03T18:55:54;40.88;32.35;55.92;;
1754;Laerm;58380;48.312;9.246;2023-04-03T19:01:57;43.14;30.90;60.50;;
1754;Laerm;58380;48.312;9.246;2023-04-03T19:08:02;39.77;32.21;47.64;;
1754;Laerm;58380;48.312;9.246;2023-04-03T19:13:59;41.98;31.54;57.40;;
1754;Laerm;58380;48.312;9.246;2023-04-03T19:19:50;45.32;31.64;60.44;;
1754;Laerm;58380;48.312;9.246;2023-04-03T19:22:51;39.30;31.08;49.80;;
1754;Laerm;58380;48.312;9.246;2023-04-03T19:29:02;40.99;31.50;53.85;;
1754;Laerm;58380;48.312;9.246;2023-04-03T19:31:57;43.61;33.52;50.39;;
1754;Laerm;58380;48.312;9.246;2023-04-03T19:34:26;39.69;31.11;47.30;;
1754;Laerm;58380;48.312;9.246;2023-04-03T19:36:58;41.99;31.93;60.97;;
1754;Laerm;58380;48.312;9.246;2023-04-03T19:40:01;39.24;31.37;49.41;;
1754;Laerm;58380;48.312;9.246;2023-04-03T19:42:40;43.00;32.32;54.21;;
1754;Laerm;58380;48.312;9.246;2023-04-03T19:45:59;42.85;34.24;53.92;;
1754;Laerm;58380;48.312;9.246;2023-04-03T19:48:39;43.36;31.83;50.92;;
1754;Laerm;58380;48.312;9.246;2023-04-03T19:51:30;40.89;32.83;51.52;;
1754;Laerm;58380;48.312;9.246;2023-04-03T19:53:56;41.42;32.77;49.41;;
1754;Laerm;58380;48.312;9.246;2023-04-03T19:56:28;42.02;33.80;49.56;;
1754;Laerm;58380;48.312;9.246;2023-04-03T19:59:14;34.28;30.64;44.26;;
1754;Laerm;58380;48.312;9.246;2023-04-03T20:02:08;40.49;32.20;48.55;;
1754;Laerm;58380;48.312;9.246;2023-04-03T20:04:45;41.83;34.63;49.12;;
1754;Laerm;58380;48.312;9.246;2023-04-03T20:07:39;41.05;32.34;49.58;;
1754;Laerm;58380;48.312;9.246;2023-04-03T20:10:33;38.77;31.64;52.00;;
1754;Laerm;58380;48.312;9.246;2023-04-03T20:13:39;40.90;31.04;52.49;;
1754;Laerm;58380;48.312;9.246;2023-04-03T20:16:43;38.11;31.65;49.52;;
1754;Laerm;58380;48.312;9.246;2023-04-03T20:19:38;39.58;31.07;53.20;;
1754;Laerm;58380;48.312;9.246;2023-04-03T20:25:21;39.04;31.13;49.87;;
1754;Laerm;58380;48.312;9.246;2023-04-03T20:28:04;38.16;30.74;51.12;;
1754;Laerm;58380;48.312;9.246;2023-04-03T20:30:48;36.74;30.46;46.39;;
1754;Laerm;58380;48.312;9.246;2023-04-03T20:33:57;40.91;31.00;52.44;;
1754;Laerm;58380;48.312;9.246;2023-04-03T20:36:33;39.63;30.59;50.38;;
1754;Laerm;58380;48.312;9.246;2023-04-03T20:39:19;44.23;33.92;53.45;;
1754;Laerm;58380;48.312;9.246;2023-04-03T20:45:51;43.34;33.09;53.54;;
1754;Laerm;58380;48.312;9.246;2023-04-03T20:48:17;44.02;31.58;62.43;;
1754;Laerm;58380;48.312;9.246;2023-04-03T20:50:43;38.89;31.08;49.31;;
1754;Laerm;58380;48.312;9.246;2023-04-03T20:53:16;40.59;32.27;48.98;;
1754;Laerm;58380;48.312;9.246;2023-04-03T20:55:54;38.32;29.93;50.23;;
1754;Laerm;58380;48.312;9.246;2023-04-03T20:58:20;41.17;31.49;53.67;;
